sensor_id;sensor_type;location;lat;lon;timestamp;P1;durP1;ratioP1;P2;durP2;ratioP2
23728;SDS011;12045;60.214;24.724;2023-02-01T00:00:39;3.23;;;0.90;;
23728;SDS011;12045;60.214;24.724;2023-02-01T00:03:08;1.53;;;0.70;;
23728;SDS011;12045;60.214;24.724;2023-02-01T00:05:38;2.10;;;0.77;;
23728;SDS011;12045;60.214;24.724;2023-02-01T00:08:05;2.03;;;0.70;;
23728;SDS011;12045;60.214;24.724;2023-02-01T00:10:33;6.40;;;0.80;;
23728;SDS011;12045;60.214;24.724;2023-02-01T00:13:00;3.70;;;0.83;;
23728;SDS011;12045;60.214;24.724;2023-02-01T00:15:28;1.40;;;0.70;;
23728;SDS011;12045;60.214;24.724;2023-02-01T00:17:55;2.83;;;0.90;;
23728;SDS011;12045;60.214;24.724;2023-02-01T00:20:22;1.97;;;0.90;;
23728;SDS011;12045;60.214;24.724;2023-02-01T00:22:50;3.10;;;0.93;;
23728;SDS011;12045;60.214;24.724;2023-02-01T00:25:17;2.40;;;0.70;;
23728;SDS011;12045;60.214;24.724;2023-02-01T00:27:48;1.33;;;0.80;;
23728;SDS011;12045;60.214;24.724;2023-02-01T00:30:17;2.57;;;0.70;;
23728;SDS011;12045;60.214;24.724;2023-02-01T00:32:45;1.30;;;0.60;;
23728;SDS011;12045;60.214;24.724;2023-02-01T00:35:13;2.60;;;0.70;;
23728;SDS011;12045;60.214;24.724;2023-02-01T00:37:40;2.67;;;0.73;;
23728;SDS011;12045;60.214;24.724;2023-02-01T00:40:08;3.07;;;0.80;;
23728;SDS011;12045;60.214;24.724;2023-02-01T00:42:36;2.30;;;0.70;;
23728;SDS011;12045;60.214;24.724;2023-02-01T00:45:03;3.43;;;0.70;;
23728;SDS011;12045;60.214;24.724;2023-02-01T00:47:31;1.30;;;0.63;;
23728;SDS011;12045;60.214;24.724;2023-02-01T00:49:59;1.33;;;0.80;;
23728;SDS011;12045;60.214;24.724;2023-02-01T00:52:26;2.10;;;0.80;;
23728;SDS011;12045;60.214;24.724;2023-02-01T00:54:53;3.10;;;0.70;;
23728;SDS011;12045;60.214;24.724;2023-02-01T00:57:21;2.00;;;0.70;;
23728;SDS011;12045;60.214;24.724;2023-02-01T00:59:48;0.80;;;0.80;;
23728;SDS011;12045;60.214;24.724;2023-02-01T01:02:16;1.33;;;0.70;;
23728;SDS011;12045;60.214;24.724;2023-02-01T01:04:43;1.57;;;0.70;;
23728;SDS011;12045;60.214;24.724;2023-02-01T01:07:11;1.73;;;0.80;;
23728;SDS011;12045;60.214;24.724;2023-02-01T01:09:38;0.60;;;0.60;;
23728;SDS011;12045;60.214;24.724;2023-02-01T01:12:05;3.80;;;0.70;;
23728;SDS011;12045;60.214;24.724;2023-02-01T01:14:33;2.80;;;1.20;;
23728;SDS011;12045;60.214;24.724;2023-02-01T01:17:00;1.00;;;0.67;;
23728;SDS011;12045;60.214;24.724;2023-02-01T01:19:28;3.13;;;0.63;;
23728;SDS011;12045;60.214;24.724;2023-02-01T01:21:55;2.27;;;0.80;;
23728;SDS011;12045;60.214;24.724;2023-02-01T01:24:23;1.70;;;0.60;;
23728;SDS011;12045;60.214;24.724;2023-02-01T01:26:50;2.47;;;0.70;;
23728;SDS011;12045;60.214;24.724;2023-02-01T01:29:18;0.70;;;0.60;;
23728;SDS011;12045;60.214;24.724;2023-02-01T01:31:45;1.63;;;0.73;;
23728;SDS011;12045;60.214;24.724;2023-02-01T01:34:12;2.17;;;0.67;;
23728;SDS011;12045;60.214;24.724;2023-02-01T01:36:40;1.50;;;0.70;;
23728;SDS011;12045;60.214;24.724;2023-02-01T01:39:07;2.43;;;0.70;;
23728;SDS011;12045;60.214;24.724;2023-02-01T01:41:35;3.80;;;0.77;;
23728;SDS011;12045;60.214;24.724;2023-02-01T01:44:03;3.90;;;1.13;;
23728;SDS011;12045;60.214;24.724;2023-02-01T01:46:33;4.33;;;0.70;;
23728;SDS011;12045;60.214;24.724;2023-02-01T01:49:16;2.37;;;0.83;;
23728;SDS011;12045;60.214;24.724;2023-02-01T01:51:47;3.00;;;0.70;;
23728;SDS011;12045;60.214;24.724;2023-02-01T01:56:47;1.93;;;0.80;;
23728;SDS011;12045;60.214;24.724;2023-02-01T01:59:19;3.63;;;0.60;;
23728;SDS011;12045;60.214;24.724;2023-02-01T02:01:49;2.10;;;0.80;;
23728;SDS011;12045;60.214;24.724;2023-02-01T02:04:17;3.37;;;0.70;;
23728;SDS011;12045;60.214;24.724;2023-02-01T02:06:47;3.30;;;0.90;;
23728;SDS011;12045;60.214;24.724;2023-02-01T02:09:33;1.57;;;0.60;;
23728;SDS011;12045;60.214;24.724;2023-02-01T02:12:01;1.97;;;0.70;;
23728;SDS011;12045;60.214;24.724;2023-02-01T02:14:28;2.17;;;0.73;;
23728;SDS011;12045;60.214;24.724;2023-02-01T02:26:03;0.83;;;0.70;;
23728;SDS011;12045;60.214;24.724;2023-02-01T02:31:54;5.20;;;0.70;;
23728;SDS011;12045;60.214;24.724;2023-02-01T02:34:46;1.00;;;0.77;;
23728;SDS011;12045;60.214;24.724;2023-02-01T02:37:39;1.57;;;0.67;;
23728;SDS011;12045;60.214;24.724;2023-02-01T02:43:28;4.47;;;0.70;;
23728;SDS011;12045;60.214;24.724;2023-02-01T02:46:24;1.63;;;0.73;;
23728;SDS011;12045;60.214;24.724;2023-02-01T02:49:25;4.50;;;0.67;;
23728;SDS011;12045;60.214;24.724;2023-02-01T02:52:02;0.90;;;0.70;;
23728;SDS011;12045;60.214;24.724;2023-02-01T02:54:57;2.23;;;0.60;;
23728;SDS011;12045;60.214;24.724;2023-02-01T02:57:37;2.10;;;0.80;;
23728;SDS011;12045;60.214;24.724;2023-02-01T03:00:29;2.40;;;0.70;;
23728;SDS011;12045;60.214;24.724;2023-02-01T03:03:18;0.87;;;0.70;;
23728;SDS011;12045;60.214;24.724;2023-02-01T03:06:07;2.63;;;0.90;;
23728;SDS011;12045;60.214;24.724;2023-02-01T03:08:43;5.13;;;0.80;;
23728;SDS011;12045;60.214;24.724;2023-02-01T03:11:13;1.50;;;0.60;;
23728;SDS011;12045;60.214;24.724;2023-02-01T03:13:55;3.03;;;0.80;;
23728;SDS011;12045;60.214;24.724;2023-02-01T03:19:29;4.30;;;0.97;;
23728;SDS011;12045;60.214;24.724;2023-02-01T03:22:02;3.23;;;1.00;;
23728;SDS011;12045;60.214;24.724;2023-02-01T03:29:47;4.10;;;1.20;;
23728;SDS011;12045;60.214;24.724;2023-02-01T03:32:35;7.07;;;1.00;;
23728;SDS011;12045;60.214;24.724;2023-02-01T03:35:24;4.37;;;1.00;;
23728;SDS011;12045;60.214;24.724;2023-02-01T03:43:33;6.40;;;1.30;;
23728;SDS011;12045;60.214;24.724;2023-02-01T03:46:23;4.23;;;1.80;;
23728;SDS011;12045;60.214;24.724;2023-02-01T03:49:00;3.60;;;1.50;;
23728;SDS011;12045;60.214;24.724;2023-02-01T03:51:30;5.83;;;1.80;;
23728;SDS011;12045;60.214;24.724;2023-02-01T03:53:59;3.63;;;1.83;;
23728;SDS011;12045;60.214;24.724;2023-02-01T03:56:30;6.47;;;2.07;;
23728;SDS011;12045;60.214;24.724;2023-02-01T03:58:59;3.67;;;1.70;;
23728;SDS011;12045;60.214;24.724;2023-02-01T04:01:30;6.10;;;2.73;;
23728;SDS011;12045;60.214;24.724;2023-02-01T04:03:58;4.83;;;1.50;;
23728;SDS011;12045;60.214;24.724;2023-02-01T04:06:25;8.87;;;2.10;;
23728;SDS011;12045;60.214;24.724;2023-02-01T04:08:53;14.33;;;2.33;;
23728;SDS011;12045;60.214;24.724;2023-02-01T04:11:20;4.13;;;2.20;;
23728;SDS011;12045;60.214;24.724;2023-02-01T04:13:47;7.27;;;2.50;;
23728;SDS011;12045;60.214;24.724;2023-02-01T04:16:15;8.73;;;2.53;;
23728;SDS011;12045;60.214;24.724;2023-02-01T04:18:42;8.30;;;2.77;;
23728;SDS011;12045;60.214;24.724;2023-02-01T04:21:10;12.30;;;5.47;;
23728;SDS011;12045;60.214;24.724;2023-02-01T04:23:38;7.13;;;2.13;;
23728;SDS011;12045;60.214;24.724;2023-02-01T04:26:05;6.87;;;1.90;;
23728;SDS011;12045;60.214;24.724;2023-02-01T04:28:33;8.23;;;2.30;;
23728;SDS011;12045;60.214;24.724;2023-02-01T04:31:00;3.97;;;2.10;;
23728;SDS011;12045;60.214;24.724;2023-02-01T04:33:28;6.77;;;2.27;;
23728;SDS011;12045;60.214;24.724;2023-02-01T04:35:55;10.67;;;2.50;;
23728;SDS011;12045;60.214;24.724;2023-02-01T04:38:24;7.43;;;2.40;;
23728;SDS011;12045;60.214;24.724;2023-02-01T04:40:51;12.03;;;4.73;;
23728;SDS011;12045;60.214;24.724;2023-02-01T04:43:19;12.23;;;7.93;;
23728;SDS011;12045;60.214;24.724;2023-02-01T04:45:47;11.87;;;5.43;;
23728;SDS011;12045;60.214;24.724;2023-02-01T04:48:16;13.73;;;4.60;;
23728;SDS011;12045;60.214;24.724;2023-02-01T04:50:45;13.87;;;4.07;;
23728;SDS011;12045;60.214;24.724;2023-02-01T04:53:15;11.07;;;3.43;;
23728;SDS011;12045;60.214;24.724;2023-02-01T04:55:43;7.83;;;2.97;;
23728;SDS011;12045;60.214;24.724;2023-02-01T04:58:11;8.13;;;2.97;;
23728;SDS011;12045;60.214;24.724;2023-02-01T05:00:38;9.63;;;3.10;;
23728;SDS011;12045;60.214;24.724;2023-02-01T05:03:05;5.53;;;2.43;;
23728;SDS011;12045;60.214;24.724;2023-02-01T05:05:33;10.57;;;3.27;;
23728;SDS011;12045;60.214;24.724;2023-02-01T05:08:00;6.63;;;2.83;;
23728;SDS011;12045;60.214;24.724;2023-02-01T05:10:28;10.70;;;2.53;;
23728;SDS011;12045;60.214;24.724;2023-02-01T05:12:55;8.60;;;2.67;;
23728;SDS011;12045;60.214;24.724;2023-02-01T05:15:41;6.57;;;2.50;;
23728;SDS011;12045;60.214;24.724;2023-02-01T05:18:09;10.33;;;3.10;;
23728;SDS011;12045;60.214;24.724;2023-02-01T05:20:36;10.17;;;2.70;;
23728;SDS011;12045;60.214;24.724;2023-02-01T05:23:03;15.00;;;3.13;;
23728;SDS011;12045;60.214;24.724;2023-02-01T05:25:32;11.00;;;3.00;;
23728;SDS011;12045;60.214;24.724;2023-02-01T05:27:59;7.63;;;2.90;;
23728;SDS011;12045;60.214;24.724;2023-02-01T05:30:28;12.07;;;2.63;;
23728;SDS011;12045;60.214;24.724;2023-02-01T05:32:55;10.17;;;2.93;;
23728;SDS011;12045;60.214;24.724;2023-02-01T05:35:22;6.90;;;3.17;;
23728;SDS011;12045;60.214;24.724;2023-02-01T05:37:50;10.73;;;2.93;;
23728;SDS011;12045;60.214;24.724;2023-02-01T05:40:17;11.77;;;2.83;;
23728;SDS011;12045;60.214;24.724;2023-02-01T05:42:45;12.93;;;2.57;;
23728;SDS011;12045;60.214;24.724;2023-02-01T05:45:12;8.33;;;2.80;;
23728;SDS011;12045;60.214;24.724;2023-02-01T05:47:40;6.97;;;3.20;;
23728;SDS011;12045;60.214;24.724;2023-02-01T05:50:07;8.33;;;2.97;;
23728;SDS011;12045;60.214;24.724;2023-02-01T05:52:35;7.53;;;2.70;;
23728;SDS011;12045;60.214;24.724;2023-02-01T05:55:03;10.50;;;3.30;;
23728;SDS011;12045;60.214;24.724;2023-02-01T05:57:31;9.37;;;2.40;;
23728;SDS011;12045;60.214;24.724;2023-02-01T05:59:58;6.43;;;2.60;;
23728;SDS011;12045;60.214;24.724;2023-02-01T06:02:26;7.67;;;3.00;;
23728;SDS011;12045;60.214;24.724;2023-02-01T06:04:54;4.43;;;2.67;;
23728;SDS011;12045;60.214;24.724;2023-02-01T06:07:22;9.07;;;2.97;;
23728;SDS011;12045;60.214;24.724;2023-02-01T06:09:50;8.37;;;2.73;;
23728;SDS011;12045;60.214;24.724;2023-02-01T06:12:18;7.87;;;2.40;;
23728;SDS011;12045;60.214;24.724;2023-02-01T06:14:45;9.97;;;3.17;;
23728;SDS011;12045;60.214;24.724;2023-02-01T06:17:15;5.47;;;2.73;;
23728;SDS011;12045;60.214;24.724;2023-02-01T06:19:43;13.20;;;2.57;;
23728;SDS011;12045;60.214;24.724;2023-02-01T06:22:12;12.57;;;3.10;;
23728;SDS011;12045;60.214;24.724;2023-02-01T06:24:39;7.57;;;2.70;;
23728;SDS011;12045;60.214;24.724;2023-02-01T06:27:07;9.47;;;2.73;;
23728;SDS011;12045;60.214;24.724;2023-02-01T06:29:36;9.03;;;2.50;;
23728;SDS011;12045;60.214;24.724;2023-02-01T06:32:03;6.67;;;2.00;;
23728;SDS011;12045;60.214;24.724;2023-02-01T06:34:32;8.00;;;2.00;;
23728;SDS011;12045;60.214;24.724;2023-02-01T06:36:59;8.27;;;2.10;;
23728;SDS011;12045;60.214;24.724;2023-02-01T06:39:27;7.70;;;2.33;;
23728;SDS011;12045;60.214;24.724;2023-02-01T06:42:00;5.07;;;2.47;;
23728;SDS011;12045;60.214;24.724;2023-02-01T06:44:30;5.47;;;2.50;;
23728;SDS011;12045;60.214;24.724;2023-02-01T06:47:00;9.77;;;2.70;;
23728;SDS011;12045;60.214;24.724;2023-02-01T06:49:35;10.03;;;3.20;;
23728;SDS011;12045;60.214;24.724;2023-02-01T07:00:22;17.20;;;4.63;;
23728;SDS011;12045;60.214;24.724;2023-02-01T07:03:09;9.00;;;3.33;;
23728;SDS011;12045;60.214;24.724;2023-02-01T07:05:57;12.87;;;3.50;;
23728;SDS011;12045;60.214;24.724;2023-02-01T07:08:55;9.20;;;4.10;;
23728;SDS011;12045;60.214;24.724;2023-02-01T07:12:37;5.80;;;3.43;;
23728;SDS011;12045;60.214;24.724;2023-02-01T07:16:00;7.47;;;2.90;;
23728;SDS011;12045;60.214;24.724;2023-02-01T07:19:12;6.80;;;3.10;;
23728;SDS011;12045;60.214;24.724;2023-02-01T07:21:54;7.80;;;3.20;;
23728;SDS011;12045;60.214;24.724;2023-02-01T07:27:02;13.70;;;4.63;;
23728;SDS011;12045;60.214;24.724;2023-02-01T07:46:46;13.07;;;4.00;;
23728;SDS011;12045;60.214;24.724;2023-02-01T07:49:59;13.43;;;4.70;;
23728;SDS011;12045;60.214;24.724;2023-02-01T08:20:55;13.30;;;4.03;;
23728;SDS011;12045;60.214;24.724;2023-02-01T08:23:37;7.43;;;3.60;;
23728;SDS011;12045;60.214;24.724;2023-02-01T08:26:35;10.93;;;4.03;;
23728;SDS011;12045;60.214;24.724;2023-02-01T08:44:16;9.37;;;4.00;;
23728;SDS011;12045;60.214;24.724;2023-02-01T08:52:45;10.67;;;3.93;;
23728;SDS011;12045;60.214;24.724;2023-02-01T08:55:22;12.10;;;4.87;;
23728;SDS011;12045;60.214;24.724;2023-02-01T09:10:28;8.53;;;3.27;;
23728;SDS011;12045;60.214;24.724;2023-02-01T09:13:37;6.63;;;3.50;;
23728;SDS011;12045;60.214;24.724;2023-02-01T09:16:05;9.20;;;3.60;;
23728;SDS011;12045;60.214;24.724;2023-02-01T09:18:35;8.63;;;3.47;;
23728;SDS011;12045;60.214;24.724;2023-02-01T09:21:42;9.17;;;3.67;;
23728;SDS011;12045;60.214;24.724;2023-02-01T09:24:51;9.07;;;3.80;;
23728;SDS011;12045;60.214;24.724;2023-02-01T09:27:56;13.27;;;6.10;;
23728;SDS011;12045;60.214;24.724;2023-02-01T09:30:26;12.93;;;5.80;;
23728;SDS011;12045;60.214;24.724;2023-02-01T09:33:20;10.17;;;5.37;;
23728;SDS011;12045;60.214;24.724;2023-02-01T09:36:12;11.83;;;4.53;;
23728;SDS011;12045;60.214;24.724;2023-02-01T09:39:20;9.67;;;4.40;;
23728;SDS011;12045;60.214;24.724;2023-02-01T09:47:54;11.70;;;4.20;;
23728;SDS011;12045;60.214;24.724;2023-02-01T09:50:35;12.30;;;4.87;;
23728;SDS011;12045;60.214;24.724;2023-02-01T09:55:45;12.23;;;4.80;;
23728;SDS011;12045;60.214;24.724;2023-02-01T09:58:22;10.67;;;5.27;;
23728;SDS011;12045;60.214;24.724;2023-02-01T10:01:10;13.93;;;5.40;;
23728;SDS011;12045;60.214;24.724;2023-02-01T10:03:45;11.77;;;5.63;;
23728;SDS011;12045;60.214;24.724;2023-02-01T10:11:32;10.67;;;5.00;;
23728;SDS011;12045;60.214;24.724;2023-02-01T10:17:04;13.77;;;4.07;;
23728;SDS011;12045;60.214;24.724;2023-02-01T10:22:44;10.03;;;4.07;;
23728;SDS011;12045;60.214;24.724;2023-02-01T10:25:55;15.63;;;3.70;;
23728;SDS011;12045;60.214;24.724;2023-02-01T10:28:27;11.03;;;3.73;;
23728;SDS011;12045;60.214;24.724;2023-02-01T10:31:06;10.07;;;3.77;;
23728;SDS011;12045;60.214;24.724;2023-02-01T10:33:52;7.80;;;3.07;;
23728;SDS011;12045;60.214;24.724;2023-02-01T10:36:55;7.40;;;3.00;;
23728;SDS011;12045;60.214;24.724;2023-02-01T10:39:31;6.40;;;3.13;;
23728;SDS011;12045;60.214;24.724;2023-02-01T10:42:24;10.70;;;3.10;;
23728;SDS011;12045;60.214;24.724;2023-02-01T10:44:59;11.17;;;3.17;;
23728;SDS011;12045;60.214;24.724;2023-02-01T10:47:45;7.37;;;3.23;;
23728;SDS011;12045;60.214;24.724;2023-02-01T10:54:22;4.43;;;2.50;;
23728;SDS011;12045;60.214;24.724;2023-02-01T10:57:11;5.57;;;2.83;;
23728;SDS011;12045;60.214;24.724;2023-02-01T11:00:18;11.07;;;2.93;;
23728;SDS011;12045;60.214;24.724;2023-02-01T11:03:43;8.30;;;2.67;;
23728;SDS011;12045;60.214;24.724;2023-02-01T11:06:40;10.33;;;3.50;;
23728;SDS011;12045;60.214;24.724;2023-02-01T11:10:01;11.47;;;3.87;;
23728;SDS011;12045;60.214;24.724;2023-02-01T11:15:14;9.43;;;4.57;;
23728;SDS011;12045;60.214;24.724;2023-02-01T11:17:50;11.63;;;4.70;;
23728;SDS011;12045;60.214;24.724;2023-02-01T11:20:35;12.67;;;4.70;;
23728;SDS011;12045;60.214;24.724;2023-02-01T11:23:24;14.87;;;5.07;;
23728;SDS011;12045;60.214;24.724;2023-02-01T11:26:01;15.60;;;4.93;;
23728;SDS011;12045;60.214;24.724;2023-02-01T11:31:59;8.83;;;3.77;;
23728;SDS011;12045;60.214;24.724;2023-02-01T11:34:51;8.33;;;3.10;;
23728;SDS011;12045;60.214;24.724;2023-02-01T11:37:57;7.60;;;3.80;;
23728;SDS011;12045;60.214;24.724;2023-02-01T11:40:42;11.33;;;3.83;;
23728;SDS011;12045;60.214;24.724;2023-02-01T11:43:28;11.53;;;3.77;;
23728;SDS011;12045;60.214;24.724;2023-02-01T11:46:31;12.57;;;4.60;;
23728;SDS011;12045;60.214;24.724;2023-02-01T11:49:23;8.80;;;3.97;;
23728;SDS011;12045;60.214;24.724;2023-02-01T11:59:31;8.83;;;3.03;;
23728;SDS011;12045;60.214;24.724;2023-02-01T12:10:44;6.33;;;2.60;;
23728;SDS011;12045;60.214;24.724;2023-02-01T12:21:52;3.40;;;1.30;;
23728;SDS011;12045;60.214;24.724;2023-02-01T12:33:55;2.20;;;0.90;;
23728;SDS011;12045;60.214;24.724;2023-02-01T12:36:49;2.90;;;0.93;;
23728;SDS011;12045;60.214;24.724;2023-02-01T12:39:30;4.73;;;1.23;;
23728;SDS011;12045;60.214;24.724;2023-02-01T12:42:11;2.10;;;1.13;;
23728;SDS011;12045;60.214;24.724;2023-02-01T12:44:53;6.13;;;1.37;;
23728;SDS011;12045;60.214;24.724;2023-02-01T12:50:17;6.90;;;1.60;;
23728;SDS011;12045;60.214;24.724;2023-02-01T12:52:53;6.57;;;1.53;;
23728;SDS011;12045;60.214;24.724;2023-02-01T13:00:43;7.87;;;1.40;;
23728;SDS011;12045;60.214;24.724;2023-02-01T13:03:32;3.67;;;1.20;;
23728;SDS011;12045;60.214;24.724;2023-02-01T13:06:12;5.57;;;1.10;;
23728;SDS011;12045;60.214;24.724;2023-02-01T13:11:38;2.67;;;0.90;;
23728;SDS011;12045;60.214;24.724;2023-02-01T13:16:48;1.83;;;0.90;;
23728;SDS011;12045;60.214;24.724;2023-02-01T13:22:15;1.10;;;0.60;;
23728;SDS011;12045;60.214;24.724;2023-02-01T13:24:54;2.73;;;1.00;;
23728;SDS011;12045;60.214;24.724;2023-02-01T13:27:28;3.23;;;0.80;;
23728;SDS011;12045;60.214;24.724;2023-02-01T13:30:02;3.33;;;0.80;;
23728;SDS011;12045;60.214;24.724;2023-02-01T13:32:42;3.50;;;0.80;;
23728;SDS011;12045;60.214;24.724;2023-02-01T13:35:48;2.60;;;1.00;;
23728;SDS011;12045;60.214;24.724;2023-02-01T13:38:34;4.83;;;0.90;;
23728;SDS011;12045;60.214;24.724;2023-02-01T13:41:28;1.07;;;0.80;;
23728;SDS011;12045;60.214;24.724;2023-02-01T13:44:11;3.57;;;0.90;;
23728;SDS011;12045;60.214;24.724;2023-02-01T13:46:43;3.53;;;0.90;;
23728;SDS011;12045;60.214;24.724;2023-02-01T13:49:21;1.60;;;0.70;;
23728;SDS011;12045;60.214;24.724;2023-02-01T13:51:53;7.63;;;0.80;;
23728;SDS011;12045;60.214;24.724;2023-02-01T13:57:23;3.47;;;0.77;;
23728;SDS011;12045;60.214;24.724;2023-02-01T14:00:05;2.33;;;0.87;;
23728;SDS011;12045;60.214;24.724;2023-02-01T14:03:01;6.32;;;1.00;;
23728;SDS011;12045;60.214;24.724;2023-02-01T14:10:47;4.77;;;0.80;;
23728;SDS011;12045;60.214;24.724;2023-02-01T14:21:30;2.93;;;0.70;;
23728;SDS011;12045;60.214;24.724;2023-02-01T14:24:01;3.30;;;1.13;;
23728;SDS011;12045;60.214;24.724;2023-02-01T14:26:48;3.70;;;0.82;;
23728;SDS011;12045;60.214;24.724;2023-02-01T14:34:49;2.83;;;0.90;;
23728;SDS011;12045;60.214;24.724;2023-02-01T14:37:25;2.47;;;0.80;;
23728;SDS011;12045;60.214;24.724;2023-02-01T14:50:23;3.20;;;0.90;;
23728;SDS011;12045;60.214;24.724;2023-02-01T14:58:47;4.87;;;1.07;;
23728;SDS011;12045;60.214;24.724;2023-02-01T15:04:01;4.80;;;0.90;;
23728;SDS011;12045;60.214;24.724;2023-02-01T15:14:36;3.07;;;1.00;;
23728;SDS011;12045;60.214;24.724;2023-02-01T15:19:56;2.17;;;1.00;;
23728;SDS011;12045;60.214;24.724;2023-02-01T15:22:39;4.20;;;0.90;;
23728;SDS011;12045;60.214;24.724;2023-02-01T15:25:17;5.10;;;1.20;;
23728;SDS011;12045;60.214;24.724;2023-02-01T15:27:47;8.13;;;0.87;;
23728;SDS011;12045;60.214;24.724;2023-02-01T15:30:22;3.30;;;0.87;;
23728;SDS011;12045;60.214;24.724;2023-02-01T15:33:13;3.20;;;0.90;;
23728;SDS011;12045;60.214;24.724;2023-02-01T15:35:44;5.43;;;1.00;;
23728;SDS011;12045;60.214;24.724;2023-02-01T15:43:28;2.50;;;0.90;;
23728;SDS011;12045;60.214;24.724;2023-02-01T15:45:59;8.33;;;1.20;;
23728;SDS011;12045;60.214;24.724;2023-02-01T15:48:32;4.03;;;1.07;;
23728;SDS011;12045;60.214;24.724;2023-02-01T15:51:12;8.00;;;1.30;;
23728;SDS011;12045;60.214;24.724;2023-02-01T15:53:54;1.10;;;0.80;;
23728;SDS011;12045;60.214;24.724;2023-02-01T15:56:28;4.87;;;1.40;;
23728;SDS011;12045;60.214;24.724;2023-02-01T15:59:01;3.20;;;1.20;;
23728;SDS011;12045;60.214;24.724;2023-02-01T16:01:30;7.40;;;1.20;;
23728;SDS011;12045;60.214;24.724;2023-02-01T16:04:04;5.30;;;1.13;;
23728;SDS011;12045;60.214;24.724;2023-02-01T16:06:55;4.80;;;1.40;;
23728;SDS011;12045;60.214;24.724;2023-02-01T16:09:53;3.50;;;1.07;;
23728;SDS011;12045;60.214;24.724;2023-02-01T16:12:33;8.60;;;1.70;;
23728;SDS011;12045;60.214;24.724;2023-02-01T16:15:05;10.40;;;1.80;;
23728;SDS011;12045;60.214;24.724;2023-02-01T16:17:33;4.60;;;1.70;;
23728;SDS011;12045;60.214;24.724;2023-02-01T16:20:00;7.37;;;1.00;;
23728;SDS011;12045;60.214;24.724;2023-02-01T16:22:28;3.30;;;0.90;;
23728;SDS011;12045;60.214;24.724;2023-02-01T16:24:55;4.70;;;1.30;;
23728;SDS011;12045;60.214;24.724;2023-02-01T16:27:23;2.97;;;1.13;;
23728;SDS011;12045;60.214;24.724;2023-02-01T16:29:51;3.63;;;1.00;;
23728;SDS011;12045;60.214;24.724;2023-02-01T16:32:24;5.77;;;1.43;;
23728;SDS011;12045;60.214;24.724;2023-02-01T16:34:54;2.77;;;1.40;;
23728;SDS011;12045;60.214;24.724;2023-02-01T16:37:24;7.23;;;1.23;;
23728;SDS011;12045;60.214;24.724;2023-02-01T16:39:54;3.60;;;1.80;;
23728;SDS011;12045;60.214;24.724;2023-02-01T16:42:22;5.63;;;1.50;;
23728;SDS011;12045;60.214;24.724;2023-02-01T16:44:50;4.28;;;1.52;;
23728;SDS011;12045;60.214;24.724;2023-02-01T16:47:18;2.83;;;1.10;;
23728;SDS011;12045;60.214;24.724;2023-02-01T16:49:49;4.80;;;1.00;;
23728;SDS011;12045;60.214;24.724;2023-02-01T16:52:18;2.53;;;1.10;;
23728;SDS011;12045;60.214;24.724;2023-02-01T16:54:48;1.83;;;1.10;;
23728;SDS011;12045;60.214;24.724;2023-02-01T16:57:17;3.00;;;1.23;;
23728;SDS011;12045;60.214;24.724;2023-02-01T16:59:46;2.53;;;1.30;;
23728;SDS011;12045;60.214;24.724;2023-02-01T17:02:15;1.43;;;0.90;;
23728;SDS011;12045;60.214;24.724;2023-02-01T17:04:43;4.67;;;1.00;;
23728;SDS011;12045;60.214;24.724;2023-02-01T17:07:13;2.47;;;0.83;;
23728;SDS011;12045;60.214;24.724;2023-02-01T17:09:45;5.77;;;0.90;;
23728;SDS011;12045;60.214;24.724;2023-02-01T17:14:48;1.67;;;0.90;;
23728;SDS011;12045;60.214;24.724;2023-02-01T17:17:17;2.27;;;0.80;;
23728;SDS011;12045;60.214;24.724;2023-02-01T17:20:04;2.00;;;0.67;;
23728;SDS011;12045;60.214;24.724;2023-02-01T17:22:34;1.83;;;0.97;;
23728;SDS011;12045;60.214;24.724;2023-02-01T17:25:01;1.60;;;1.00;;
23728;SDS011;12045;60.214;24.724;2023-02-01T17:27:31;2.50;;;0.70;;
23728;SDS011;12045;60.214;24.724;2023-02-01T17:29:59;3.00;;;1.07;;
23728;SDS011;12045;60.214;24.724;2023-02-01T17:32:32;2.67;;;1.10;;
23728;SDS011;12045;60.214;24.724;2023-02-01T17:34:59;2.10;;;1.00;;
23728;SDS011;12045;60.214;24.724;2023-02-01T17:37:28;3.53;;;0.97;;
23728;SDS011;12045;60.214;24.724;2023-02-01T17:39:58;5.77;;;1.00;;
23728;SDS011;12045;60.214;24.724;2023-02-01T17:42:28;1.53;;;0.80;;
23728;SDS011;12045;60.214;24.724;2023-02-01T17:44:57;4.00;;;1.00;;
23728;SDS011;12045;60.214;24.724;2023-02-01T17:47:28;2.87;;;1.20;;
23728;SDS011;12045;60.214;24.724;2023-02-01T17:50:00;5.30;;;1.30;;
23728;SDS011;12045;60.214;24.724;2023-02-01T17:52:28;4.20;;;1.27;;
23728;SDS011;12045;60.214;24.724;2023-02-01T17:54:56;4.00;;;1.47;;
23728;SDS011;12045;60.214;24.724;2023-02-01T17:57:24;4.87;;;1.30;;
23728;SDS011;12045;60.214;24.724;2023-02-01T17:59:51;2.33;;;0.90;;
23728;SDS011;12045;60.214;24.724;2023-02-01T18:04:50;4.43;;;1.20;;
23728;SDS011;12045;60.214;24.724;2023-02-01T18:07:18;1.93;;;1.03;;
23728;SDS011;12045;60.214;24.724;2023-02-01T18:09:46;4.00;;;1.10;;
23728;SDS011;12045;60.214;24.724;2023-02-01T18:12:22;3.03;;;1.00;;
23728;SDS011;12045;60.214;24.724;2023-02-01T18:14:52;2.70;;;0.90;;
23728;SDS011;12045;60.214;24.724;2023-02-01T18:17:19;3.47;;;1.23;;
23728;SDS011;12045;60.214;24.724;2023-02-01T18:19:47;1.70;;;0.97;;
23728;SDS011;12045;60.214;24.724;2023-02-01T18:22:18;2.80;;;1.03;;
23728;SDS011;12045;60.214;24.724;2023-02-01T18:24:49;4.13;;;1.07;;
23728;SDS011;12045;60.214;24.724;2023-02-01T18:27:17;4.60;;;0.90;;
23728;SDS011;12045;60.214;24.724;2023-02-01T18:29:44;3.20;;;1.03;;
23728;SDS011;12045;60.214;24.724;2023-02-01T18:32:12;2.30;;;1.00;;
23728;SDS011;12045;60.214;24.724;2023-02-01T18:34:39;1.67;;;1.10;;
23728;SDS011;12045;60.214;24.724;2023-02-01T18:37:08;2.23;;;1.20;;
23728;SDS011;12045;60.214;24.724;2023-02-01T18:39:35;6.27;;;1.30;;
23728;SDS011;12045;60.214;24.724;2023-02-01T18:42:05;2.00;;;1.20;;
23728;SDS011;12045;60.214;24.724;2023-02-01T18:44:35;6.60;;;1.10;;
23728;SDS011;12045;60.214;24.724;2023-02-01T18:47:02;1.77;;;1.20;;
23728;SDS011;12045;60.214;24.724;2023-02-01T18:49:30;4.17;;;1.17;;
23728;SDS011;12045;60.214;24.724;2023-02-01T18:51:57;2.27;;;1.07;;
23728;SDS011;12045;60.214;24.724;2023-02-01T18:54:25;2.80;;;1.23;;
23728;SDS011;12045;60.214;24.724;2023-02-01T18:56:54;5.07;;;1.20;;
23728;SDS011;12045;60.214;24.724;2023-02-01T18:59:21;1.67;;;1.10;;
23728;SDS011;12045;60.214;24.724;2023-02-01T19:01:49;2.40;;;1.10;;
23728;SDS011;12045;60.214;24.724;2023-02-01T19:04:16;2.70;;;1.17;;
23728;SDS011;12045;60.214;24.724;2023-02-01T19:06:51;1.83;;;1.00;;
23728;SDS011;12045;60.214;24.724;2023-02-01T19:09:19;3.43;;;1.10;;
23728;SDS011;12045;60.214;24.724;2023-02-01T19:11:46;6.13;;;1.10;;
23728;SDS011;12045;60.214;24.724;2023-02-01T19:14:14;4.10;;;1.10;;
23728;SDS011;12045;60.214;24.724;2023-02-01T19:16:41;1.30;;;1.13;;
23728;SDS011;12045;60.214;24.724;2023-02-01T19:19:10;4.47;;;1.20;;
23728;SDS011;12045;60.214;24.724;2023-02-01T19:21:37;3.90;;;1.90;;
23728;SDS011;12045;60.214;24.724;2023-02-01T19:24:05;2.90;;;1.50;;
23728;SDS011;12045;60.214;24.724;2023-02-01T19:26:32;2.93;;;1.20;;
23728;SDS011;12045;60.214;24.724;2023-02-01T19:29:00;4.53;;;1.40;;
23728;SDS011;12045;60.214;24.724;2023-02-01T19:31:27;2.13;;;1.13;;
23728;SDS011;12045;60.214;24.724;2023-02-01T19:33:55;2.83;;;1.40;;
23728;SDS011;12045;60.214;24.724;2023-02-01T19:36:22;3.27;;;1.50;;
23728;SDS011;12045;60.214;24.724;2023-02-01T19:38:52;3.30;;;1.30;;
23728;SDS011;12045;60.214;24.724;2023-02-01T19:41:20;2.07;;;1.30;;